Time;durP1;ratioP1;P1;durP2;ratioP2;P2;SDS_P1;SDS_P2;PMS_P1;PMS_P2;Temp;Humidity;BMP_temperature;BMP_pressure;BME280_temperature;BME280_humidity;BME280_pressure;Samples;Min_cycle;Max_cycle;Signal;HPM_P1;HPM_P2
2022/07/06 00:03:45;;;;;;;9.00;6.90;;;;;;;16.04;77.95;100024.80;213066;1274;140486;-65
2022/07/06 00:08:56;;;;;;;9.00;6.50;;;;;;;15.91;78.16;100028.25;213209;1274;140192;-62
2022/07/06 00:13:59;;;;;;;7.50;6.60;;;;;;;15.92;78.45;100029.80;213937;1274;139389;-62
2022/07/06 00:19:03;;;;;;;7.70;7.00;;;;;;;15.80;78.16;100022.83;213422;1274;139699;-63
2022/07/06 00:24:06;;;;;;;10.40;7.80;;;;;;;15.60;78.37;100025.52;213354;1273;139446;-63
2022/07/06 00:29:09;;;;;;;7.00;6.50;;;;;;;15.61;78.77;100021.96;213346;1274;141238;-63
2022/07/06 00:34:12;;;;;;;9.80;8.20;;;;;;;15.65;78.88;100021.56;214152;1274;140446;-63
2022/07/06 00:39:14;;;;;;;7.80;6.90;;;;;;;15.68;79.19;100018.67;215782;1274;140790;-63
2022/07/06 00:44:18;;;;;;;10.30;7.10;;;;;;;15.79;79.31;100010.84;215917;1274;231448;-64
2022/07/06 00:54:45;;;;;;;10.90;7.00;;;;;;;15.80;78.99;100007.40;216096;1274;140354;-63
2022/07/06 00:59:48;;;;;;;10.30;7.60;;;;;;;15.88;79.24;100003.52;216114;1274;140790;-63
2022/07/06 01:04:51;;;;;;;8.40;7.70;;;;;;;15.92;79.20;99999.80;216081;1274;140250;-62
2022/07/06 01:09:55;;;;;;;7.70;6.50;;;;;;;15.99;79.12;99996.02;214930;1274;143354;-63
2022/07/06 01:14:59;;;;;;;8.30;7.30;;;;;;;16.05;79.02;99995.28;213603;1274;141354;-61
2022/07/06 01:20:18;;;;;;;8.40;7.60;;;;;;;15.90;78.47;99987.49;213419;1274;160233;-63
2022/07/06 01:25:22;;;;;;;12.90;8.30;;;;;;;15.71;78.56;99992.63;214183;1274;231855;-64
2022/07/06 01:30:26;;;;;;;11.10;8.00;;;;;;;15.65;78.82;99990.45;213594;1274;140102;-63
2022/07/06 01:35:31;;;;;;;7.30;6.80;;;;;;;15.69;79.07;99991.48;213596;1274;140696;-63
2022/07/06 01:40:36;;;;;;;13.70;6.70;;;;;;;15.68;78.95;99993.63;213704;1274;140537;-62
2022/07/06 01:45:39;;;;;;;9.00;6.80;;;;;;;15.57;78.71;99987.23;213533;1274;140610;-64
2022/07/06 01:50:45;;;;;;;6.70;6.20;;;;;;;15.57;79.32;99986.17;213607;1274;139176;-64
2022/07/06 01:55:50;;;;;;;13.00;8.60;;;;;;;15.60;79.34;99991.92;213285;1274;140315;-64
2022/07/06 02:00:55;;;;;;;9.30;7.00;;;;;;;15.63;79.44;99992.90;213017;1274;139840;-63
2022/07/06 02:06:00;;;;;;;11.70;7.00;;;;;;;15.59;79.26;99993.73;213844;1274;140276;-62
2022/07/06 02:11:04;;;;;;;8.00;7.20;;;;;;;15.56;79.27;99994.80;213366;1274;142377;-63
2022/07/06 02:16:08;;;;;;;16.30;7.00;;;;;;;15.53;79.37;99999.88;213293;1274;139207;-62
2022/07/06 02:21:11;;;;;;;8.60;7.30;;;;;;;15.41;79.08;100003.73;213338;1274;139706;-64
2022/07/06 02:26:14;;;;;;;8.90;6.80;;;;;;;15.29;78.97;99998.92;213323;1274;140896;-63
2022/07/06 02:31:17;;;;;;;9.50;7.40;;;;;;;15.26;79.15;99999.23;213088;1274;141341;-64
2022/07/06 02:36:19;;;;;;;6.60;6.00;;;;;;;15.17;79.10;99993.98;211728;1274;3442430;-63
2022/07/06 02:41:23;;;;;;;8.40;7.80;;;;;;;15.21;79.42;99986.58;215940;1274;141880;-64
2022/07/06 02:46:26;;;;;;;8.80;8.10;;;;;;;15.28;79.68;99984.35;216329;1274;140000;-62
2022/07/06 02:51:30;;;;;;;11.50;8.70;;;;;;;15.36;79.60;99984.56;216152;1274;141100;-62
2022/07/06 02:56:35;;;;;;;14.00;7.00;;;;;;;15.40;79.34;99983.41;216038;1274;141353;-63
2022/07/06 03:01:38;;;;;;;9.60;8.80;;;;;;;15.40;79.23;99989.10;216093;1274;142042;-62
2022/07/06 03:06:42;;;;;;;16.10;8.70;;;;;;;15.46;79.35;99994.73;215555;1274;140198;-62
2022/07/06 03:11:46;;;;;;;8.60;7.70;;;;;;;15.50;79.26;99984.11;214763;1274;139431;-64
2022/07/06 03:16:50;;;;;;;9.80;8.40;;;;;;;15.36;78.61;99977.20;213949;1274;139376;-63
2022/07/06 03:21:54;;;;;;;9.10;8.00;;;;;;;15.17;78.62;99967.80;213140;1274;140674;-64
2022/07/06 03:26:57;;;;;;;9.20;7.60;;;;;;;15.09;78.90;99969.41;213822;1274;139770;-62
2022/07/06 03:32:04;;;;;;;9.60;8.60;;;;;;;15.19;79.33;99973.68;213372;1274;140503;-62
2022/07/06 03:37:08;;;;;;;10.50;9.60;;;;;;;15.34;79.39;99978.20;213274;1274;140044;-63
2022/07/06 03:42:10;;;;;;;14.60;9.90;;;;;;;15.52;79.69;99985.11;213683;1274;140450;-63
2022/07/06 03:47:13;;;;;;;10.20;9.00;;;;;;;15.68;79.59;99986.80;213610;1274;139454;-61
2022/07/06 03:52:15;;;;;;;9.40;8.60;;;;;;;15.75;79.51;99988.84;213263;1274;140652;-64
2022/07/06 03:57:18;;;;;;;9.60;8.80;;;;;;;15.83;79.28;99991.45;213530;1274;141013;-62
2022/07/06 04:02:22;;;;;;;8.90;7.80;;;;;;;16.13;78.83;99989.29;213361;1274;139759;-63
2022/07/06 04:07:28;;;;;;;12.80;8.60;;;;;;;16.42;78.39;99984.83;213443;1274;139375;-62
2022/07/06 04:12:31;;;;;;;10.80;7.90;;;;;;;16.48;78.18;99983.61;213671;1274;140503;-61
2022/07/06 04:17:52;;;;;;;9.30;6.30;;;;;;;16.63;78.17;99986.86;213477;1274;140944;-63
2022/07/06 04:22:56;;;;;;;9.30;6.60;;;;;;;16.92;77.54;99985.67;214250;1274;140037;-62
2022/07/06 04:28:00;;;;;;;9.30;5.40;;;;;;;17.38;77.04;99986.05;213685;1274;140649;-62
2022/07/06 04:33:03;;;;;;;6.10;5.00;;;;;;;18.09;76.65;99982.91;213266;1274;143040;-64
2022/07/06 04:38:09;;;;;;;5.50;4.40;;;;;;;18.86;75.74;99981.52;216106;1272;140152;-64
2022/07/06 04:43:13;;;;;;;6.20;3.60;;;;;;;19.89;73.77;99981.52;215973;1274;161609;-62
2022/07/06 04:48:16;;;;;;;10.10;3.30;;;;;;;21.94;71.04;99979.71;215936;1274;140887;-65
2022/07/06 04:53:18;;;;;;;5.90;2.30;;;;;;;23.28;67.94;99982.67;216252;1275;141051;-63
2022/07/06 04:58:24;;;;;;;2.90;2.70;;;;;;;24.34;65.59;99982.31;216314;1275;140556;-63
2022/07/06 05:03:27;;;;;;;2.40;2.20;;;;;;;24.06;64.21;99986.55;216076;1275;140874;-62
2022/07/06 05:08:29;;;;;;;4.50;2.60;;;;;;;24.12;62.62;99992.59;214917;1275;160269;-61
2022/07/06 05:13:31;;;;;;;1.60;1.50;;;;;;;25.24;60.04;100002.46;213371;1275;140510;-62
2022/07/06 05:18:36;;;;;;;2.90;2.10;;;;;;;28.88;56.35;100008.13;213507;1275;140610;-62
2022/07/06 05:23:42;;;;;;;1.50;1.20;;;;;;;32.24;52.76;100017.83;213863;1274;139179;-62
2022/07/06 05:28:44;;;;;;;4.10;1.30;;;;;;;34.84;48.37;100018.17;213542;1274;139962;-62
2022/07/06 05:33:47;;;;;;;1.10;1.00;;;;;;;36.76;44.78;100020.84;213889;1274;139361;-62
2022/07/06 05:38:49;;;;;;;1.90;0.80;;;;;;;38.06;41.48;100022.34;213498;1275;163952;-62
2022/07/06 05:43:54;;;;;;;3.40;1.90;;;;;;;39.35;39.44;100032.86;213576;1276;139019;-64
2022/07/06 05:54:18;;;;;;;1.70;0.80;;;;;;;41.17;34.45;100039.02;213104;1275;139290;-63
2022/07/06 05:59:23;;;;;;;1.80;0.80;;;;;;;41.80;32.84;100042.84;213654;1274;139106;-64
2022/07/06 06:04:26;;;;;;;5.30;1.30;;;;;;;42.26;31.24;100041.98;213219;1274;139724;-63
2022/07/06 06:09:32;;;;;;;1.40;0.90;;;;;;;42.60;30.20;100039.52;213358;1274;139380;-65
2022/07/06 06:14:38;;;;;;;1.30;1.10;;;;;;;43.13;29.27;100038.61;213990;1275;138937;-64
2022/07/06 06:19:48;;;;;;;2.00;1.20;;;;;;;43.58;28.34;100040.70;212931;1276;139545;-64
2022/07/06 06:24:54;;;;;;;1.20;0.80;;;;;;;43.80;27.25;100039.53;213240;1274;205481;-65
2022/07/06 06:30:40;;;;;;;3.00;1.10;;;;;;;43.86;26.38;100034.50;213673;1275;139166;-66
2022/07/06 06:36:13;;;;;;;1.00;0.90;;;;;;;43.79;25.83;100031.26;214798;1274;139369;-65
2022/07/06 06:42:05;;;;;;;;;;;;;;;;;;;;;
2022/07/06 06:47:54;;;;;;;3.20;1.00;;;;;;;43.95;24.91;100034.27;215925;1274;139243;-65
2022/07/06 06:53:22;;;;;;;1.40;0.80;;;;;;;43.84;24.37;100037.48;215958;1274;139510;-65
2022/07/06 06:59:03;;;;;;;;;;;;;;;;;;;;;
2022/07/06 07:04:25;;;;;;;0.90;0.90;;;;;;;41.19;24.05;100037.98;214065;1276;139397;-66
2022/07/06 07:09:31;;;;;;;0.60;0.60;;;;;;;40.71;24.60;100034.67;213675;1275;139347;-66
2022/07/06 07:14:34;;;;;;;3.30;1.80;;;;;;;40.64;24.81;100031.02;213698;1274;141591;-66
2022/07/06 07:19:38;;;;;;;0.80;0.80;;;;;;;40.67;24.48;100031.98;213532;1274;141253;-65
2022/07/06 07:24:41;;;;;;;0.90;0.90;;;;;;;40.29;24.60;100025.22;213246;1274;140166;-64
2022/07/06 07:29:45;;;;;;;4.40;1.20;;;;;;;38.70;25.13;100017.91;213266;1274;139140;-64
2022/07/06 07:34:49;;;;;;;1.80;1.20;;;;;;;36.77;25.75;100019.23;213246;1276;139919;-65
2022/07/06 07:39:52;;;;;;;1.70;0.80;;;;;;;34.92;26.97;100018.60;213478;1274;139286;-65
2022/07/06 07:44:56;;;;;;;0.60;0.60;;;;;;;33.12;27.30;100026.73;213399;1274;138971;-64
2022/07/06 07:49:59;;;;;;;;;;;;;;;31.64;29.02;100030.55;213557;1274;139282;-64
2022/07/06 07:55:07;;;;;;;6.60;1.60;;;;;;;30.40;30.72;100031.02;213885;1274;127406;-64
2022/07/06 08:00:31;;;;;;;1.70;1.30;;;;;;;29.59;31.70;100026.22;213318;1274;139462;-64
2022/07/06 08:05:38;;;;;;;1.60;0.90;;;;;;;29.24;32.73;100032.14;212982;1274;139685;-64
2022/07/06 08:10:41;;;;;;;2.20;1.20;;;;;;;28.99;33.63;100030.52;213347;1276;140074;-63
2022/07/06 08:16:04;;;;;;;1.70;1.60;;;;;;;28.68;34.41;100030.48;213191;1276;139864;-64
2022/07/06 08:21:07;;;;;;;2.00;1.90;;;;;;;28.47;34.48;100033.09;213140;1277;140046;-64
2022/07/06 08:26:28;;;;;;;2.90;2.10;;;;;;;28.32;34.70;100033.45;215779;1274;140404;-65
2022/07/06 08:31:31;;;;;;;2.00;1.70;;;;;;;28.16;35.01;100035.97;215919;1276;139001;-65
2022/07/06 08:36:53;;;;;;;3.80;1.60;;;;;;;27.82;34.84;100042.97;216041;1274;139300;-64
2022/07/06 08:42:01;;;;;;;2.40;1.70;;;;;;;27.48;35.21;100036.83;216058;1274;139300;-63
2022/07/06 08:47:07;;;;;;;1.90;1.50;;;;;;;27.20;35.75;100040.94;215307;1274;140865;-63
2022/07/06 08:52:11;;;;;;;1.90;1.00;;;;;;;26.91;36.03;100038.95;216037;1274;139774;-65
2022/07/06 08:57:14;;;;;;;3.00;1.30;;;;;;;26.72;36.55;100036.31;215952;1275;140160;-63
2022/07/06 09:02:19;;;;;;;2.80;1.40;;;;;;;26.76;37.44;100035.38;214417;1274;141136;-62
2022/07/06 09:07:22;;;;;;;9.20;1.10;;;;;;;27.00;37.52;100040.17;213006;1274;140033;-63
2022/07/06 09:12:46;;;;;;;7.70;1.60;;;;;;;27.10;37.26;100041.40;213424;1274;141088;-62
2022/07/06 09:17:52;;;;;;;0.80;0.70;;;;;;;27.04;37.74;100039.30;213321;1275;140281;-63
2022/07/06 09:22:59;;;;;;;;;;;;;;;26.91;37.52;100029.71;213340;1274;139441;-63
2022/07/06 09:28:02;;;;;;;2.00;1.20;;;;;;;26.65;37.91;100030.88;213900;1275;127789;-63
2022/07/06 09:33:07;;;;;;;1.50;0.90;;;;;;;26.46;38.26;100038.63;213415;1274;139304;-63
2022/07/06 09:38:15;;;;;;;6.90;1.70;;;;;;;26.09;38.62;100043.56;213675;1274;139912;-63
2022/07/06 09:43:33;;;;;;;1.30;1.20;;;;;;;25.68;39.12;100041.01;213127;1276;140019;-61
2022/07/06 09:48:41;;;;;;;1.90;1.00;;;;;;;25.46;39.81;100044.23;213386;1275;141265;-63
2022/07/06 09:53:50;;;;;;;2.30;1.40;;;;;;;25.15;40.57;100038.96;213465;1274;140305;-64
2022/07/06 09:58:53;;;;;;;2.70;1.30;;;;;;;25.02;41.13;100037.24;213617;1275;141748;-61
2022/07/06 10:04:07;;;;;;;6.40;1.70;;;;;;;25.02;41.58;100041.48;213494;1276;151162;-62
2022/07/06 10:09:11;;;;;;;5.90;1.40;;;;;;;25.01;41.94;100048.83;213184;1274;140896;-61
2022/07/06 10:14:21;;;;;;;3.30;1.70;;;;;;;25.10;42.42;100043.89;213288;1276;141442;-63
2022/07/06 10:19:27;;;;;;;5.80;1.30;;;;;;;25.18;42.48;100049.68;213604;1274;206501;-62
2022/07/06 10:24:30;;;;;;;;;;;;;;;25.23;42.50;100055.17;213096;1276;140570;-61
2022/07/06 10:29:33;;;;;;;4.40;1.50;;;;;;;25.32;42.84;100054.77;214028;1275;126976;-62
2022/07/06 10:34:38;;;;;;;2.80;1.30;;;;;;;25.54;42.66;100047.95;215926;1274;139999;-63
2022/07/06 10:45:14;;;;;;;3.10;1.50;;;;;;;26.26;42.41;100047.20;216101;1274;139256;-62
2022/07/06 10:50:19;;;;;;;4.80;1.30;;;;;;;26.32;41.84;100043.80;215713;1276;140692;-63
2022/07/06 10:55:42;;;;;;;2.10;1.40;;;;;;;26.47;41.90;100043.92;215370;1276;139176;-63
2022/07/06 11:00:54;;;;;;;4.50;1.40;;;;;;;26.83;41.72;100036.57;213915;1274;139422;-63
2022/07/06 11:06:00;;;;;;;4.20;1.50;;;;;;;27.07;41.10;100035.18;213564;1275;139908;-62
2022/07/06 11:11:17;;;;;;;1.00;0.90;;;;;;;26.90;40.08;100025.55;214658;1274;140947;-62
2022/07/06 11:16:23;;;;;;;3.60;1.30;;;;;;;26.59;40.45;100031.15;213524;1275;140169;-64
2022/07/06 11:21:39;;;;;;;2.60;0.80;;;;;;;26.59;40.51;100032.16;214907;1275;140422;-62
2022/07/06 11:26:44;;;;;;;2.50;1.40;;;;;;;26.66;39.38;100024.52;213634;1274;140271;-61
2022/07/06 11:31:49;;;;;;;3.00;1.30;;;;;;;26.75;39.71;100021.98;213261;1275;140124;-63
2022/07/06 11:37:00;;;;;;;1.10;1.00;;;;;;;26.73;39.57;100021.67;213397;1276;153010;-64
2022/07/06 11:42:04;;;;;;;4.50;1.50;;;;;;;27.02;39.12;100026.73;213120;1274;140607;-62
2022/07/06 11:47:07;;;;;;;1.30;0.90;;;;;;;27.12;38.95;100028.95;213117;1277;140680;-65
2022/07/06 11:52:13;;;;;;;1.00;0.90;;;;;;;27.08;38.55;100026.39;213188;1275;141697;-62
2022/07/06 11:57:16;;;;;;;5.10;1.50;;;;;;;27.05;38.54;100032.27;213425;1274;142163;-64
2022/07/06 12:02:19;;;;;;;1.30;1.20;;;;;;;27.18;38.02;100031.80;213297;1274;140359;-63
2022/07/06 12:07:22;;;;;;;5.10;1.20;;;;;;;26.96;37.92;100037.66;213633;1275;152282;-64
2022/07/06 12:12:24;;;;;;;1.80;0.90;;;;;;;26.62;37.71;100038.36;213393;1274;141381;-64
2022/07/06 12:17:26;;;;;;;1.50;1.30;;;;;;;26.40;37.80;100040.83;213291;1274;140573;-64
2022/07/06 12:22:28;;;;;;;4.50;2.00;;;;;;;26.16;37.87;100045.42;213734;1275;221785;-64
2022/07/06 12:27:33;;;;;;;2.50;1.70;;;;;;;25.73;38.29;100061.77;213409;1274;151752;-63
2022/07/06 12:32:36;;;;;;;7.30;2.00;;;;;;;24.92;39.10;100088.73;215702;1274;141560;-63
2022/07/06 12:37:56;;;;;;;5.10;1.50;;;;;;;23.97;40.84;100107.73;216167;1274;139845;-64
2022/07/06 12:43:03;;;;;;;10.10;1.90;;;;;;;23.43;42.49;100120.62;215943;1274;140276;-64
2022/07/06 12:48:05;;;;;;;9.60;2.90;;;;;;;23.15;43.85;100121.68;215771;1275;140013;-64
2022/07/06 12:53:25;;;;;;;4.00;2.10;;;;;;;23.20;44.53;100122.54;214720;1274;139337;-63
2022/07/06 12:58:30;;;;;;;4.30;1.60;;;;;;;23.43;44.33;100114.58;213451;1274;139616;-63
2022/07/06 13:03:40;;;;;;;9.30;3.60;;;;;;;23.58;44.71;100116.02;213176;1274;139123;-62
2022/07/06 13:08:42;;;;;;;3.40;1.40;;;;;;;23.53;44.63;100118.25;213267;1276;139287;-63
2022/07/06 13:13:48;;;;;;;1.30;1.20;;;;;;;23.29;44.77;100124.36;213643;1274;140292;-64
2022/07/06 13:18:54;;;;;;;2.40;1.40;;;;;;;23.00;45.13;100133.83;213915;1274;139556;-63
2022/07/06 13:24:01;;;;;;;;;;;;;;;22.73;44.98;100142.05;213167;1274;139964;-63
2022/07/06 13:29:05;;;;;;;1.40;1.30;;;;;;;22.41;45.19;100148.52;214232;1274;127658;-65
2022/07/06 13:34:08;;;;;;;1.40;1.30;;;;;;;22.14;45.42;100149.45;213546;1274;139899;-64
2022/07/06 13:39:11;;;;;;;1.40;1.00;;;;;;;21.95;45.93;100146.64;213206;1274;139414;-64
2022/07/06 13:44:13;;;;;;;2.60;1.90;;;;;;;21.68;46.35;100144.30;213395;1274;139896;-63
2022/07/06 13:49:17;;;;;;;1.10;1.00;;;;;;;21.46;47.04;100141.91;213489;1274;141606;-64
2022/07/06 13:54:20;;;;;;;1.40;1.30;;;;;;;21.27;47.56;100133.93;213379;1274;139934;-64
2022/07/06 13:59:23;;;;;;;1.30;1.20;;;;;;;21.04;47.97;100133.71;213594;1273;139862;-63
2022/07/06 14:04:26;;;;;;;21.30;5.80;;;;;;;20.75;48.42;100128.45;213241;1273;139776;-64
2022/07/06 14:09:29;;;;;;;2.50;2.30;;;;;;;20.53;49.00;100123.06;213872;1274;140264;-64
2022/07/06 14:14:36;;;;;;;2.10;1.20;;;;;;;20.37;49.62;100122.94;213842;1274;140348;-65
2022/07/06 14:19:40;;;;;;;2.30;1.40;;;;;;;20.26;50.10;100128.73;216031;1274;141219;-65
2022/07/06 14:24:43;;;;;;;1.70;1.60;;;;;;;20.19;50.73;100131.89;216153;1274;141133;-65
2022/07/06 14:29:47;;;;;;;5.70;1.80;;;;;;;20.14;50.91;100126.48;216102;1274;139633;-65
2022/07/06 14:34:53;;;;;;;1.40;1.20;;;;;;;20.09;51.41;100122.39;215533;1274;755917;-64
2022/07/06 14:39:55;;;;;;;2.20;2.00;;;;;;;19.98;51.54;100123.21;216092;1274;140695;-65
2022/07/06 14:44:58;;;;;;;6.30;1.90;;;;;;;19.92;51.78;100120.50;216084;1274;140174;-63
2022/07/06 14:50:00;;;;;;;4.40;1.40;;;;;;;20.03;51.95;100116.28;216019;1274;139664;-63
2022/07/06 14:55:03;;;;;;;2.20;1.60;;;;;;;20.22;51.86;100106.97;213540;1274;139597;-64
2022/07/06 15:00:06;;;;;;;2.30;1.50;;;;;;;20.50;52.28;100099.47;213245;1272;139951;-64
2022/07/06 15:05:11;;;;;;;3.10;1.10;;;;;;;21.02;52.01;100089.89;213570;1274;139550;-65
2022/07/06 15:10:14;;;;;;;0.70;0.70;;;;;;;21.36;51.25;100088.81;213577;1274;209468;-64
2022/07/06 15:15:18;;;;;;;4.50;1.40;;;;;;;21.43;50.36;100082.20;213352;1274;141094;-64
2022/07/06 15:20:44;;;;;;;1.30;1.20;;;;;;;21.46;49.68;100073.88;213509;1273;139995;-65
2022/07/06 15:25:48;;;;;;;2.80;1.00;;;;;;;21.44;49.24;100068.11;213375;1274;141573;-63
2022/07/06 15:30:58;;;;;;;1.30;1.10;;;;;;;21.44;48.84;100060.95;213303;1274;140495;-63
2022/07/06 15:36:01;;;;;;;2.30;1.20;;;;;;;21.43;48.34;100055.39;213267;1274;139014;-62
2022/07/06 15:41:03;;;;;;;1.70;1.10;;;;;;;21.52;47.86;100052.52;213229;1274;140470;-64
2022/07/06 15:46:06;;;;;;;1.00;1.00;;;;;;;21.57;47.63;100046.36;213673;1274;139816;-61
2022/07/06 15:51:10;;;;;;;1.00;1.00;;;;;;;21.52;47.05;100043.19;213700;1274;139327;-65
2022/07/06 15:56:13;;;;;;;3.40;1.30;;;;;;;21.46;46.85;100039.39;213571;1274;142275;-64
2022/07/06 16:01:16;;;;;;;2.30;1.30;;;;;;;21.45;46.86;100040.65;213527;1274;140249;-62
2022/07/06 16:06:18;;;;;;;1.40;1.30;;;;;;;21.50;46.74;100036.82;213087;1274;142237;-62
2022/07/06 16:11:21;;;;;;;2.40;1.60;;;;;;;21.46;46.60;100036.13;214862;1271;142318;-61
2022/07/06 16:16:26;;;;;;;1.50;1.20;;;;;;;21.39;46.61;100030.95;216031;1274;142218;-64
2022/07/06 16:21:29;;;;;;;1.30;1.30;;;;;;;21.38;46.71;100031.09;216093;1274;143050;-61
2022/07/06 16:26:31;;;;;;;2.90;1.30;;;;;;;21.34;46.72;100029.71;216089;1275;140271;-62
2022/07/06 16:31:33;;;;;;;1.70;1.60;;;;;;;21.33;46.82;100029.78;216095;1275;139751;-62
2022/07/06 16:36:36;;;;;;;2.40;1.90;;;;;;;21.32;46.80;100026.64;215844;1274;150642;-64
2022/07/06 16:41:37;;;;;;;1.20;1.20;;;;;;;21.20;46.68;100026.34;214777;1274;140761;-65
2022/07/06 16:46:40;;;;;;;3.90;1.80;;;;;;;21.02;47.36;100030.92;214008;1274;140222;-63
2022/07/06 16:51:43;;;;;;;1.70;1.60;;;;;;;20.84;47.98;100028.17;213021;1274;140412;-64
2022/07/06 16:56:46;;;;;;;1.40;1.20;;;;;;;20.65;49.23;100025.23;213491;1274;140185;-64
2022/07/06 17:01:51;;;;;;;2.50;1.50;;;;;;;20.49;50.01;100027.64;213346;1274;139197;-63
2022/07/06 17:06:54;;;;;;;4.90;1.80;;;;;;;20.34;50.00;100021.44;213611;1274;139644;-63
2022/07/06 17:11:56;;;;;;;1.60;1.50;;;;;;;20.35;50.55;100016.92;213241;1274;139843;-64
2022/07/06 17:16:58;;;;;;;4.10;2.00;;;;;;;20.35;51.19;100020.82;213492;1274;141631;-64
2022/07/06 17:22:01;;;;;;;2.20;1.90;;;;;;;20.32;51.12;100020.25;213426;1274;139014;-62
2022/07/06 17:27:08;;;;;;;4.30;2.00;;;;;;;20.25;52.13;100018.56;213248;1274;139130;-64
2022/07/06 17:32:13;;;;;;;1.80;1.40;;;;;;;20.14;52.93;100017.85;213387;1274;140537;-64
2022/07/06 17:37:17;;;;;;;1.70;1.60;;;;;;;19.97;53.55;100016.77;213616;1274;139857;-63
2022/07/06 17:42:23;;;;;;;0.90;0.90;;;;;;;19.89;54.16;100014.42;213661;1274;140282;-64
2022/07/06 17:47:29;;;;;;;1.70;1.60;;;;;;;19.77;54.72;100020.36;213436;1274;161510;-62
2022/07/06 17:52:32;;;;;;;2.30;1.40;;;;;;;19.67;55.45;100020.97;213821;1274;140303;-62
2022/07/06 17:57:36;;;;;;;3.80;1.90;;;;;;;19.56;56.03;100022.65;213495;1274;142985;-61
2022/07/06 18:02:38;;;;;;;1.50;1.40;;;;;;;19.46;56.96;100027.17;213399;1273;140389;-62
2022/07/06 18:07:42;;;;;;;1.70;1.40;;;;;;;19.38;57.55;100032.11;214437;1273;140879;-62
2022/07/06 18:12:45;;;;;;;1.30;1.30;;;;;;;19.31;57.93;100032.29;216180;1273;142121;-65
2022/07/06 18:17:49;;;;;;;1.90;1.80;;;;;;;19.22;58.25;100031.09;215720;1273;140964;-64
2022/07/06 18:23:04;;;;;;;4.70;1.60;;;;;;;19.13;58.57;100033.33;216234;1275;140998;-64
2022/07/06 18:28:07;;;;;;;4.30;2.10;;;;;;;19.03;58.66;100039.08;216195;1273;140555;-63
2022/07/06 18:33:09;;;;;;;1.90;1.50;;;;;;;18.93;59.05;100041.49;216002;1274;140398;-63
2022/07/06 18:38:11;;;;;;;1.90;1.80;;;;;;;18.85;59.26;100045.83;216257;1274;139389;-61
2022/07/06 18:43:15;;;;;;;2.00;1.90;;;;;;;18.75;58.96;100046.86;213975;1273;141547;-63
2022/07/06 18:48:17;;;;;;;3.50;2.60;;;;;;;18.69;58.73;100051.80;213599;1274;141715;-61
2022/07/06 18:53:20;;;;;;;2.40;2.10;;;;;;;18.65;58.61;100050.86;213398;1274;139758;-65
2022/07/06 18:58:23;;;;;;;2.60;1.90;;;;;;;18.63;59.05;100053.86;213283;1273;139581;-61
2022/07/06 19:03:26;;;;;;;3.80;2.60;;;;;;;18.52;59.22;100059.52;213318;1274;140530;-62
2022/07/06 19:08:30;;;;;;;4.10;1.70;;;;;;;18.36;58.50;100066.56;214021;1274;140076;-63
2022/07/06 19:13:37;;;;;;;1.10;1.10;;;;;;;18.24;57.38;100070.84;213322;1274;141066;-63
2022/07/06 19:18:39;;;;;;;1.00;0.90;;;;;;;18.15;56.97;100075.02;213385;1273;140767;-64
2022/07/06 19:23:41;;;;;;;1.80;1.40;;;;;;;18.06;56.82;100081.26;213645;1274;139673;-63
2022/07/06 19:28:45;;;;;;;1.20;1.10;;;;;;;17.94;56.78;100086.64;213514;1274;141884;-62
2022/07/06 19:33:47;;;;;;;1.30;1.10;;;;;;;17.80;55.95;100087.48;213303;1274;139983;-65
2022/07/06 19:38:51;;;;;;;1.60;1.10;;;;;;;17.71;55.35;100090.48;213475;1274;140221;-63
2022/07/06 19:43:55;;;;;;;3.60;1.20;;;;;;;17.65;55.09;100095.67;213641;1273;141026;-63
2022/07/06 19:49:01;;;;;;;1.00;0.70;;;;;;;17.60;55.08;100102.34;213347;1276;139680;-63
2022/07/06 19:54:04;;;;;;;18.80;2.00;;;;;;;17.52;55.34;100107.25;213268;1275;141927;-62
2022/07/06 19:59:06;;;;;;;1.60;0.90;;;;;;;17.45;55.28;100107.31;213551;1275;140691;-63
2022/07/06 20:04:10;;;;;;;1.60;1.00;;;;;;;17.36;55.38;100105.60;213245;1273;140316;-64
2022/07/06 20:09:13;;;;;;;3.00;1.20;;;;;;;17.30;55.69;100104.42;215115;1274;139407;-64
2022/07/06 20:14:16;;;;;;;9.70;1.10;;;;;;;17.20;55.98;100105.74;216067;1274;140390;-63
2022/07/06 20:19:22;;;;;;;12.30;1.50;;;;;;;17.09;56.40;100102.36;216177;1274;139997;-64
2022/07/06 20:24:24;;;;;;;1.50;1.10;;;;;;;16.97;56.91;100106.16;216006;1274;140802;-64
2022/07/06 20:29:27;;;;;;;2.10;1.20;;;;;;;16.89;57.27;100110.55;214761;1273;143262;-64
2022/07/06 20:34:29;;;;;;;2.40;1.20;;;;;;;16.75;57.01;100112.88;216392;1274;140369;-64
2022/07/06 20:39:32;;;;;;;3.00;1.60;;;;;;;16.68;56.64;100117.31;214322;1273;140898;-64
2022/07/06 20:44:35;;;;;;;1.50;1.30;;;;;;;16.58;56.22;100118.76;214438;1274;140527;-63
2022/07/06 20:49:37;;;;;;;1.30;1.20;;;;;;;16.49;56.15;100119.17;214468;1273;140515;-63
2022/07/06 20:54:40;;;;;;;1.20;0.70;;;;;;;16.44;56.25;100116.89;213461;1273;140123;-64
2022/07/06 20:59:49;;;;;;;0.90;0.90;;;;;;;16.37;56.54;100110.25;213366;1273;140928;-63
2022/07/06 21:04:53;;;;;;;1.90;1.20;;;;;;;16.29;56.82;100110.58;213515;1274;141199;-63
2022/07/06 21:09:57;;;;;;;1.40;1.00;;;;;;;16.15;57.23;100108.86;213443;1273;140966;-64
2022/07/06 21:15:01;;;;;;;1.90;1.00;;;;;;;16.00;57.62;100108.36;213545;1273;139726;-64
2022/07/06 21:20:05;;;;;;;2.90;1.30;;;;;;;15.82;57.85;100110.85;214026;1275;139724;-63
2022/07/06 21:25:08;;;;;;;1.40;0.70;;;;;;;15.67;58.21;100115.75;213238;1273;140947;-65
2022/07/06 21:30:12;;;;;;;0.50;0.50;;;;;;;15.54;58.51;100115.81;213458;1275;140513;-62
2022/07/06 21:35:15;;;;;;;0.70;0.70;;;;;;;15.41;58.78;100119.55;213212;1274;142303;-63
2022/07/06 21:40:18;;;;;;;0.90;0.60;;;;;;;15.30;59.11;100119.36;213505;1274;141320;-63
2022/07/06 21:45:22;;;;;;;0.90;0.80;;;;;;;15.20;59.80;100123.27;213335;1275;140932;-62
2022/07/06 21:50:26;;;;;;;3.10;1.40;;;;;;;15.07;60.16;100124.05;213521;1274;151611;-62
2022/07/06 21:55:29;;;;;;;2.20;1.30;;;;;;;14.92;60.24;100121.29;213452;1275;139416;-63
2022/07/06 22:00:32;;;;;;;3.00;0.80;;;;;;;14.74;60.38;100119.55;213203;1274;139401;-63
2022/07/06 22:05:35;;;;;;;0.80;0.80;;;;;;;14.56;60.96;100123.70;214911;1273;139566;-64
2022/07/06 22:10:38;;;;;;;0.90;0.60;;;;;;;14.47;61.31;100126.87;216248;1274;140667;-62
2022/07/06 22:15:43;;;;;;;1.90;1.50;;;;;;;14.44;62.01;100123.55;216106;1273;139782;-64
2022/07/06 22:20:50;;;;;;;3.70;1.10;;;;;;;14.40;62.25;100121.66;215922;1274;141788;-63
2022/07/06 22:25:53;;;;;;;2.20;1.10;;;;;;;14.37;62.32;100121.73;216093;1274;140669;-63
2022/07/06 22:30:57;;;;;;;1.10;1.00;;;;;;;14.22;62.27;100121.55;216027;1274;139917;-63
2022/07/06 22:36:00;;;;;;;3.60;0.90;;;;;;;14.08;62.65;100121.15;215543;1274;139761;-64
2022/07/06 22:41:03;;;;;;;4.30;1.50;;;;;;;13.98;63.31;100120.81;213429;1273;141875;-66
2022/07/06 22:46:11;;;;;;;1.20;1.00;;;;;;;13.86;63.60;100119.98;213820;1274;141455;-63
2022/07/06 22:51:15;;;;;;;0.80;0.80;;;;;;;13.75;64.16;100118.92;213736;1273;209283;-63
2022/07/06 22:56:19;;;;;;;1.40;1.20;;;;;;;13.55;64.14;100119.42;213486;1274;139813;-64
2022/07/06 23:01:23;;;;;;;0.90;0.90;;;;;;;13.34;64.95;100117.98;213556;1273;140039;-63
2022/07/06 23:06:27;;;;;;;0.70;0.50;;;;;;;13.22;65.54;100115.05;214057;1274;139429;-63
2022/07/06 23:11:31;;;;;;;5.10;1.00;;;;;;;13.11;66.00;100116.67;213658;1274;140218;-64
2022/07/06 23:16:34;;;;;;;1.70;1.00;;;;;;;13.15;66.31;100122.89;213697;1274;141375;-63
2022/07/06 23:21:39;;;;;;;1.90;1.10;;;;;;;13.13;66.58;100122.15;213432;1274;233349;-63
2022/07/06 23:26:43;;;;;;;1.00;1.00;;;;;;;13.15;67.01;100119.63;213572;1274;141289;-65
2022/07/06 23:31:46;;;;;;;2.10;1.30;;;;;;;13.26;67.37;100119.19;213626;1274;141923;-60
2022/07/06 23:36:51;;;;;;;3.10;1.40;;;;;;;13.29;67.48;100114.31;213650;1274;143619;-60